createdAt,value
2023-08-30T00:00:27.136Z,17.91
2023-08-30T00:02:55.845Z,17.93
2023-08-30T00:05:26.809Z,17.85
2023-08-30T00:07:56.458Z,17.87
2023-08-30T00:10:25.361Z,17.96
2023-08-30T00:12:54.136Z,17.96
2023-08-30T00:15:22.896Z,17.92
2023-08-30T00:17:53.923Z,17.91
2023-08-30T00:20:23.709Z,17.85
2023-08-30T00:22:52.953Z,17.83
2023-08-30T00:25:22.711Z,17.91
2023-08-30T00:27:51.395Z,17.91
2023-08-30T00:30:20.663Z,17.87
2023-08-30T00:32:49.574Z,17.89
2023-08-30T00:35:18.778Z,17.85
2023-08-30T00:37:47.714Z,17.93
2023-08-30T00:40:16.453Z,17.92
2023-08-30T00:42:46.116Z,17.92
2023-08-30T00:45:15.316Z,18.01
2023-08-30T00:47:44.453Z,18.00
2023-08-30T00:50:14.611Z,18.03
2023-08-30T00:52:43.904Z,18.02
2023-08-30T00:55:13.233Z,18.06
2023-08-30T00:57:42.295Z,18.15
2023-08-30T01:00:13.138Z,18.12
2023-08-30T01:02:42.872Z,18.16
2023-08-30T01:05:11.974Z,18.07
2023-08-30T01:07:40.914Z,18.23
2023-08-30T01:10:10.064Z,18.24
2023-08-30T01:12:51.537Z,18.17
2023-08-30T01:15:22.914Z,18.25
2023-08-30T01:17:54.388Z,18.20
2023-08-30T01:20:26.131Z,18.21
2023-08-30T01:23:12.436Z,18.27
2023-08-30T01:26:22.137Z,18.23
2023-08-30T01:28:53.823Z,18.22
2023-08-30T01:31:25.436Z,18.11
2023-08-30T01:33:54.311Z,18.07
2023-08-30T01:36:24.226Z,18.10
2023-08-30T01:38:54.811Z,18.16
2023-08-30T01:41:25.072Z,18.18
2023-08-30T01:43:55.475Z,18.20
2023-08-30T01:46:26.336Z,18.04
2023-08-30T01:48:56.691Z,18.14
2023-08-30T01:51:26.712Z,17.93
2023-08-30T01:53:58.156Z,18.20
2023-08-30T01:56:27.032Z,18.23
2023-08-30T01:58:55.890Z,18.25
2023-08-30T02:01:24.540Z,18.08
2023-08-30T02:03:54.492Z,18.40
2023-08-30T02:06:34.673Z,18.38
2023-08-30T02:09:28.633Z,18.31
2023-08-30T02:11:59.331Z,18.11
2023-08-30T02:14:31.987Z,18.44
2023-08-30T02:17:00.917Z,18.11
2023-08-30T02:19:29.938Z,18.40
2023-08-30T02:21:58.762Z,18.31
2023-08-30T02:24:27.557Z,18.27
2023-08-30T02:26:59.117Z,18.08
2023-08-30T02:29:27.758Z,18.08
2023-08-30T02:31:56.503Z,17.89
2023-08-30T02:34:25.251Z,17.90
2023-08-30T02:36:54.629Z,17.67
2023-08-30T02:39:23.731Z,17.93
2023-08-30T02:41:52.513Z,18.08
2023-08-30T02:44:22.436Z,18.20
2023-08-30T02:46:51.237Z,18.20
2023-08-30T02:49:19.958Z,18.39
2023-08-30T02:51:48.684Z,18.61
2023-08-30T02:54:17.377Z,18.97
2023-08-30T02:56:46.576Z,19.21
2023-08-30T02:59:15.134Z,19.46
2023-08-30T03:01:45.957Z,19.59
2023-08-30T03:04:17.223Z,19.86
2023-08-30T03:06:46.194Z,20.05
2023-08-30T03:09:16.295Z,20.03
2023-08-30T03:11:46.778Z,20.08
2023-08-30T03:14:17.418Z,19.82
2023-08-30T03:16:48.497Z,20.08
2023-08-30T03:19:19.457Z,20.00
2023-08-30T03:21:48.394Z,20.01
2023-08-30T03:24:18.333Z,20.00
2023-08-30T03:26:47.183Z,20.03
2023-08-30T03:29:16.135Z,19.94
2023-08-30T03:31:47.874Z,19.99
2023-08-30T03:34:16.677Z,19.99
2023-08-30T03:36:46.521Z,20.02
2023-08-30T03:39:16.539Z,20.17
2023-08-30T03:41:45.035Z,20.42
2023-08-30T03:44:13.795Z,20.65
2023-08-30T03:46:42.629Z,20.69
2023-08-30T03:49:11.376Z,20.85
2023-08-30T03:51:40.507Z,20.79
2023-08-30T03:54:10.335Z,20.77
2023-08-30T03:56:38.989Z,20.53
2023-08-30T03:59:07.776Z,20.90
2023-08-30T04:01:36.599Z,20.93
2023-08-30T04:04:06.698Z,20.82
2023-08-30T04:06:35.604Z,20.77
2023-08-30T04:09:06.374Z,20.87
2023-08-30T04:11:35.427Z,21.01
2023-08-30T04:14:04.315Z,21.10
2023-08-30T04:16:33.143Z,20.84
2023-08-30T04:19:01.932Z,21.26
2023-08-30T04:21:31.592Z,21.26
2023-08-30T04:24:00.543Z,21.32
2023-08-30T04:26:29.281Z,21.36
2023-08-30T04:28:58.749Z,21.27
2023-08-30T04:31:27.595Z,20.90
2023-08-30T04:33:57.254Z,21.11
2023-08-30T04:36:25.915Z,21.07
2023-08-30T04:39:02.432Z,20.70
2023-08-30T04:41:35.452Z,20.89
2023-08-30T04:44:04.303Z,20.91
2023-08-30T04:46:33.034Z,20.92
2023-08-30T04:49:01.752Z,21.03
2023-08-30T04:51:30.353Z,20.83
2023-08-30T04:53:59.691Z,21.13
2023-08-30T04:56:28.732Z,21.04
2023-08-30T04:58:59.074Z,21.14
2023-08-30T05:01:28.021Z,20.83
2023-08-30T05:03:59.533Z,21.14
2023-08-30T05:06:28.953Z,21.03
2023-08-30T05:08:57.953Z,21.05
2023-08-30T05:11:26.751Z,21.14
2023-08-30T05:13:56.084Z,21.31
2023-08-30T05:16:25.269Z,21.33
2023-08-30T05:18:54.855Z,21.39
2023-08-30T05:21:23.678Z,21.47
2023-08-30T05:23:52.944Z,21.54
2023-08-30T05:26:21.914Z,21.56
2023-08-30T05:28:50.633Z,21.67
2023-08-30T05:31:20.146Z,21.66
2023-08-30T05:34:15.056Z,21.41
2023-08-30T05:36:43.870Z,21.39
2023-08-30T05:39:36.854Z,21.33
2023-08-30T05:42:06.022Z,21.31
2023-08-30T05:44:34.810Z,21.37
2023-08-30T05:47:03.633Z,21.26
2023-08-30T05:49:32.492Z,21.08
2023-08-30T05:52:01.266Z,21.38
2023-08-30T05:54:33.307Z,21.22
2023-08-30T05:57:02.515Z,21.25
2023-08-30T05:59:31.517Z,21.19
2023-08-30T06:02:00.190Z,21.09
2023-08-30T06:04:29.321Z,21.17
2023-08-30T06:06:58.096Z,21.09
2023-08-30T06:09:27.333Z,21.09
2023-08-30T06:11:57.354Z,21.13
2023-08-30T06:14:31.434Z,20.94
2023-08-30T06:17:00.357Z,21.16
2023-08-30T06:19:29.220Z,21.12
2023-08-30T06:21:57.954Z,21.08
2023-08-30T06:24:26.775Z,21.02
2023-08-30T06:26:55.398Z,21.05
2023-08-30T06:29:24.123Z,21.04
2023-08-30T06:31:53.055Z,21.12
2023-08-30T06:34:21.836Z,21.16
2023-08-30T06:36:50.795Z,21.09
2023-08-30T06:39:20.442Z,21.07
2023-08-30T06:41:49.492Z,21.18
2023-08-30T06:44:18.914Z,21.07
2023-08-30T06:46:47.758Z,21.19
2023-08-30T06:49:16.493Z,21.27
2023-08-30T06:51:45.175Z,21.24
2023-08-30T06:54:14.037Z,21.37
2023-08-30T06:56:42.738Z,21.33
2023-08-30T06:59:11.695Z,21.33
2023-08-30T07:01:40.431Z,21.40
2023-08-30T07:04:12.072Z,21.42
2023-08-30T07:06:40.824Z,21.42
2023-08-30T07:09:09.650Z,21.43
2023-08-30T07:11:38.453Z,21.46
2023-08-30T07:14:07.176Z,21.68
2023-08-30T07:16:35.879Z,21.73
2023-08-30T07:19:04.816Z,21.79
2023-08-30T07:21:34.714Z,21.79
2023-08-30T07:24:03.689Z,21.66
2023-08-30T07:26:32.312Z,21.71
2023-08-30T07:29:01.044Z,21.63
2023-08-30T07:31:29.899Z,21.69
2023-08-30T07:34:00.056Z,21.66
2023-08-30T07:36:45.105Z,21.77
2023-08-30T07:39:15.781Z,21.80
2023-08-30T07:41:44.618Z,21.59
2023-08-30T07:44:13.160Z,21.92
2023-08-30T07:46:42.026Z,21.90
2023-08-30T07:49:10.810Z,21.98
2023-08-30T07:51:39.688Z,21.95
2023-08-30T07:54:11.071Z,22.00
2023-08-30T07:56:39.812Z,22.07
2023-08-30T07:59:08.423Z,22.12
2023-08-30T08:01:37.279Z,21.99
2023-08-30T08:04:08.112Z,22.02
2023-08-30T08:06:38.104Z,21.98
2023-08-30T08:09:09.314Z,21.95
2023-08-30T08:11:38.215Z,21.85
2023-08-30T08:14:07.007Z,21.98
2023-08-30T08:16:36.155Z,21.74
2023-08-30T08:19:04.931Z,22.10
2023-08-30T08:21:33.870Z,22.19
2023-08-30T08:24:03.593Z,22.37
2023-08-30T08:26:32.386Z,22.43
2023-08-30T08:29:01.777Z,22.64
2023-08-30T08:31:30.613Z,22.80
2023-08-30T08:34:14.173Z,22.86
2023-08-30T08:36:44.449Z,22.90
2023-08-30T08:39:15.813Z,22.99
2023-08-30T08:41:46.219Z,22.92
2023-08-30T08:44:18.912Z,23.02
2023-08-30T08:46:49.929Z,22.93
2023-08-30T08:49:19.478Z,22.89
2023-08-30T08:51:48.476Z,22.91
2023-08-30T08:54:20.414Z,22.55
2023-08-30T08:56:52.352Z,22.78
2023-08-30T08:59:22.791Z,22.60
2023-08-30T09:01:51.866Z,22.34
2023-08-30T09:04:23.956Z,22.54
2023-08-30T09:06:52.634Z,22.47
2023-08-30T09:09:25.172Z,22.30
2023-08-30T09:11:53.952Z,22.26
2023-08-30T09:14:22.961Z,22.18
2023-08-30T09:17:02.785Z,22.11
2023-08-30T09:19:32.262Z,22.09
2023-08-30T09:22:02.506Z,22.13
2023-08-30T09:24:41.483Z,22.08
2023-08-30T09:27:10.553Z,22.04
2023-08-30T09:29:39.753Z,21.93
2023-08-30T09:32:10.879Z,21.98
2023-08-30T09:34:48.826Z,21.74
2023-08-30T09:37:24.897Z,21.72
2023-08-30T09:39:54.314Z,21.66
2023-08-30T09:42:24.116Z,21.56
2023-08-30T09:44:53.211Z,21.35
2023-08-30T09:47:22.319Z,21.30
2023-08-30T09:49:53.686Z,21.23
2023-08-30T09:52:25.516Z,21.08
2023-08-30T09:54:55.467Z,20.98
2023-08-30T09:57:24.923Z,20.61
2023-08-30T09:59:53.616Z,20.49
2023-08-30T10:02:23.254Z,20.58
2023-08-30T10:04:53.068Z,20.53
2023-08-30T10:07:23.513Z,20.37
2023-08-30T10:10:09.147Z,20.14
2023-08-30T10:12:40.991Z,20.06
2023-08-30T10:15:10.264Z,19.98
2023-08-30T10:17:43.432Z,19.84
2023-08-30T10:20:14.030Z,19.59
2023-08-30T10:22:45.766Z,19.60
2023-08-30T10:25:21.166Z,19.47
2023-08-30T10:27:51.873Z,19.40
2023-08-30T10:30:23.394Z,19.33
2023-08-30T10:32:52.369Z,19.22
2023-08-30T10:35:21.550Z,19.01
2023-08-30T10:37:57.756Z,18.95
2023-08-30T10:40:26.746Z,18.85
2023-08-30T10:43:05.875Z,18.57
2023-08-30T10:45:37.735Z,18.51
2023-08-30T10:48:06.929Z,18.44
2023-08-30T10:50:36.663Z,18.42
2023-08-30T10:53:14.842Z,18.35
2023-08-30T10:55:43.557Z,18.30
2023-08-30T10:58:18.950Z,18.14
2023-08-30T11:00:52.114Z,18.03
2023-08-30T11:03:31.380Z,17.97
2023-08-30T11:06:05.927Z,17.83
2023-08-30T11:08:37.135Z,17.86
2023-08-30T11:11:12.595Z,17.77
2023-08-30T11:13:41.432Z,17.70
2023-08-30T11:16:11.338Z,17.79
2023-08-30T11:18:44.252Z,17.73
2023-08-30T11:21:15.731Z,17.67
2023-08-30T11:23:44.512Z,17.57
2023-08-30T11:26:14.515Z,17.34
2023-08-30T11:28:47.952Z,17.44
2023-08-30T11:31:24.454Z,17.32
2023-08-30T11:33:55.090Z,17.09
2023-08-30T11:36:30.167Z,17.41
2023-08-30T11:38:59.860Z,17.26
2023-08-30T11:41:29.451Z,17.30
2023-08-30T11:44:00.818Z,17.26
2023-08-30T11:46:29.637Z,17.19
2023-08-30T11:48:58.377Z,17.24
2023-08-30T11:51:27.472Z,17.13
2023-08-30T11:53:56.290Z,17.20
2023-08-30T11:56:26.092Z,17.16
2023-08-30T11:58:54.830Z,17.15
2023-08-30T12:01:24.215Z,16.83
2023-08-30T12:03:52.946Z,17.06
2023-08-30T12:06:25.105Z,17.01
2023-08-30T12:09:00.647Z,17.04
2023-08-30T12:11:31.032Z,17.02
2023-08-30T12:14:04.964Z,17.02
2023-08-30T12:16:36.475Z,17.07
2023-08-30T12:19:17.014Z,16.83
2023-08-30T12:21:45.870Z,16.92
2023-08-30T12:24:14.709Z,16.90
2023-08-30T12:26:46.031Z,16.60
2023-08-30T12:29:14.775Z,16.81
2023-08-30T12:31:43.492Z,16.85
2023-08-30T12:34:12.252Z,16.88
2023-08-30T12:36:41.394Z,16.67
2023-08-30T12:39:12.194Z,16.56
2023-08-30T12:41:43.613Z,16.55
2023-08-30T12:44:12.873Z,16.47
2023-08-30T12:46:41.973Z,16.39
2023-08-30T12:49:10.794Z,16.19
2023-08-30T12:51:39.680Z,15.92
2023-08-30T12:54:08.547Z,16.05
2023-08-30T12:56:37.247Z,16.05
2023-08-30T12:59:06.573Z,15.90
2023-08-30T13:01:35.506Z,15.95
2023-08-30T13:04:05.413Z,16.00
2023-08-30T13:06:34.138Z,15.94
2023-08-30T13:09:03.028Z,15.87
2023-08-30T13:11:34.142Z,15.70
2023-08-30T13:14:03.536Z,15.76
2023-08-30T13:16:32.319Z,15.36
2023-08-30T13:19:01.152Z,15.68
2023-08-30T13:21:40.558Z,15.62
2023-08-30T13:24:12.554Z,15.56
2023-08-30T13:26:41.180Z,15.55
2023-08-30T13:29:10.053Z,15.63
2023-08-30T13:31:39.236Z,15.62
2023-08-30T13:34:07.853Z,15.49
2023-08-30T13:36:38.475Z,15.57
2023-08-30T13:39:07.303Z,15.53
2023-08-30T13:41:37.754Z,15.56
2023-08-30T13:44:06.931Z,15.61
2023-08-30T13:46:36.454Z,15.75
2023-08-30T13:49:05.276Z,15.72
2023-08-30T13:51:34.852Z,15.82
2023-08-30T13:54:05.176Z,15.90
2023-08-30T13:56:35.331Z,15.86
2023-08-30T13:59:04.175Z,15.89
2023-08-30T14:01:33.355Z,15.86
2023-08-30T14:04:02.874Z,15.88
2023-08-30T14:06:34.459Z,15.94
2023-08-30T14:09:06.232Z,15.94
2023-08-30T14:11:36.733Z,16.01
2023-08-30T14:14:05.505Z,15.99
2023-08-30T14:16:35.272Z,16.08
2023-08-30T14:19:07.275Z,16.04
2023-08-30T14:21:36.495Z,16.17
2023-08-30T14:24:05.577Z,16.15
2023-08-30T14:26:34.999Z,16.09
2023-08-30T14:29:04.119Z,16.20
2023-08-30T14:31:33.340Z,16.21
2023-08-30T14:34:02.303Z,16.26
2023-08-30T14:36:32.136Z,16.14
2023-08-30T14:39:01.032Z,16.17
2023-08-30T14:41:34.193Z,16.13
2023-08-30T14:44:05.956Z,15.90
2023-08-30T14:46:35.275Z,16.13
2023-08-30T14:49:04.259Z,16.12
2023-08-30T14:51:33.516Z,15.85
2023-08-30T14:54:02.805Z,16.18
2023-08-30T14:56:32.451Z,16.13
2023-08-30T14:59:01.754Z,16.02
2023-08-30T15:01:30.881Z,16.07
2023-08-30T15:04:10.171Z,16.13
2023-08-30T15:06:41.907Z,16.13
2023-08-30T15:09:13.996Z,16.06
2023-08-30T15:11:42.897Z,15.97
2023-08-30T15:14:12.067Z,15.90
2023-08-30T15:16:41.252Z,16.08
2023-08-30T15:19:10.603Z,15.97
2023-08-30T15:24:18.096Z,15.96
2023-08-30T15:26:47.455Z,15.93
2023-08-30T15:29:16.335Z,15.95
2023-08-30T15:31:47.280Z,15.89
2023-08-30T15:34:16.330Z,16.01
2023-08-30T15:36:45.242Z,15.99
2023-08-30T15:39:18.835Z,15.96
2023-08-30T15:41:50.730Z,15.80
2023-08-30T15:44:19.594Z,15.90
2023-08-30T15:46:49.234Z,15.84
2023-08-30T15:49:18.513Z,15.84
2023-08-30T15:51:47.879Z,15.46
2023-08-30T15:54:19.072Z,15.70
2023-08-30T15:56:48.730Z,15.59
2023-08-30T15:59:17.890Z,15.37
2023-08-30T16:01:47.334Z,15.70
2023-08-30T16:04:16.631Z,15.63
2023-08-30T16:06:46.639Z,15.66
2023-08-30T16:09:16.470Z,15.70
2023-08-30T16:11:50.753Z,15.67
2023-08-30T16:14:19.613Z,15.66
2023-08-30T16:16:51.415Z,15.38
2023-08-30T16:19:21.113Z,15.69
2023-08-30T16:21:54.061Z,15.54
2023-08-30T16:24:27.968Z,15.66
2023-08-30T16:27:04.826Z,15.48
2023-08-30T16:29:33.612Z,15.59
2023-08-30T16:32:02.689Z,15.49
2023-08-30T16:34:31.512Z,15.54
2023-08-30T16:37:00.098Z,15.35
2023-08-30T16:39:28.893Z,15.48
2023-08-30T16:41:57.950Z,15.38
2023-08-30T16:44:26.691Z,15.33
2023-08-30T16:46:56.010Z,15.38
2023-08-30T16:49:25.280Z,15.33
2023-08-30T16:51:59.009Z,15.34
2023-08-30T16:54:28.088Z,15.35
2023-08-30T16:56:58.093Z,15.31
2023-08-30T16:59:27.317Z,15.29
2023-08-30T17:01:56.421Z,15.33
2023-08-30T17:04:25.773Z,15.30
2023-08-30T17:07:01.156Z,15.17
2023-08-30T17:09:35.355Z,15.11
2023-08-30T17:12:04.890Z,15.16
2023-08-30T17:14:34.311Z,15.09
2023-08-30T17:17:03.747Z,15.05
2023-08-30T17:19:33.229Z,15.06
2023-08-30T17:22:01.959Z,14.95
2023-08-30T17:24:33.290Z,14.64
2023-08-30T17:27:05.989Z,14.78
2023-08-30T17:29:35.082Z,14.65
2023-08-30T17:32:04.596Z,14.59
2023-08-30T17:34:33.329Z,14.59
2023-08-30T17:37:05.489Z,14.37
2023-08-30T17:39:34.371Z,14.39
2023-08-30T17:42:03.136Z,14.24
2023-08-30T17:44:34.903Z,14.25
2023-08-30T17:47:05.389Z,14.12
2023-08-30T17:49:34.301Z,13.95
2023-08-30T17:52:03.130Z,14.01
2023-08-30T17:54:35.602Z,13.82
2023-08-30T17:57:04.661Z,13.77
2023-08-30T17:59:35.074Z,13.48
2023-08-30T18:02:04.222Z,13.67
2023-08-30T18:04:34.977Z,13.69
2023-08-30T18:07:05.087Z,13.53
2023-08-30T18:09:33.915Z,13.46
2023-08-30T18:12:05.309Z,13.46
2023-08-30T18:14:33.988Z,13.36
2023-08-30T18:17:02.712Z,13.27
2023-08-30T18:19:31.509Z,12.88
2023-08-30T18:22:02.564Z,13.10
2023-08-30T18:24:32.393Z,13.09
2023-08-30T18:27:01.130Z,13.10
2023-08-30T18:29:30.372Z,13.03
2023-08-30T18:31:59.598Z,12.94
2023-08-30T18:34:28.855Z,12.91
2023-08-30T18:36:59.807Z,12.58
2023-08-30T18:39:28.792Z,12.80
2023-08-30T18:41:57.709Z,12.84
2023-08-30T18:44:26.568Z,12.80
2023-08-30T18:46:55.506Z,12.76
2023-08-30T18:49:25.207Z,12.67
2023-08-30T18:51:54.348Z,12.71
2023-08-30T18:54:25.423Z,12.68
2023-08-30T18:56:54.568Z,12.63
2023-08-30T18:59:23.898Z,12.55
2023-08-30T19:01:52.702Z,12.63
2023-08-30T19:04:22.302Z,12.50
2023-08-30T19:06:50.872Z,12.55
2023-08-30T19:09:20.873Z,12.51
2023-08-30T19:11:49.552Z,12.49
2023-08-30T19:14:18.216Z,12.04
2023-08-30T19:16:47.044Z,12.15
2023-08-30T19:19:15.971Z,12.41
2023-08-30T19:21:44.914Z,12.04
2023-08-30T19:24:13.728Z,12.43
2023-08-30T19:26:42.817Z,12.26
2023-08-30T19:29:12.556Z,12.37
2023-08-30T19:31:41.206Z,12.35
2023-08-30T19:34:10.032Z,12.31
2023-08-30T19:36:38.934Z,12.23
2023-08-30T19:39:09.638Z,12.19
2023-08-30T19:41:38.418Z,12.24
2023-08-30T19:44:07.549Z,12.23
2023-08-30T19:46:36.350Z,12.15
2023-08-30T19:49:05.366Z,12.13
2023-08-30T19:51:37.353Z,12.11
2023-08-30T19:54:06.168Z,11.99
2023-08-30T19:56:35.194Z,12.04
2023-08-30T19:59:05.630Z,11.74
2023-08-30T20:01:38.138Z,12.01
2023-08-30T20:04:07.037Z,12.07
2023-08-30T20:06:35.691Z,12.00
2023-08-30T20:09:04.922Z,12.03
2023-08-30T20:11:33.652Z,11.46
2023-08-30T20:14:02.275Z,11.92
2023-08-30T20:16:31.182Z,11.94
2023-08-30T20:19:00.052Z,11.94
2023-08-30T20:21:28.635Z,11.89
2023-08-30T20:23:57.256Z,11.91
2023-08-30T20:26:26.228Z,11.78
2023-08-30T20:28:54.717Z,11.77
2023-08-30T20:31:23.614Z,11.79
2023-08-30T20:33:54.401Z,11.80
2023-08-30T20:36:31.007Z,11.68
2023-08-30T20:39:07.846Z,11.54
2023-08-30T20:41:40.380Z,11.73
2023-08-30T20:44:10.760Z,11.54
2023-08-30T20:46:39.120Z,11.41
2023-08-30T20:49:08.674Z,11.38
2023-08-30T20:51:39.232Z,11.67
2023-08-30T20:54:07.644Z,11.49
2023-08-30T20:56:36.002Z,11.59
2023-08-30T20:59:06.616Z,11.66
2023-08-30T21:01:35.300Z,11.71
2023-08-30T21:04:04.604Z,11.56
2023-08-30T21:06:35.473Z,11.04
2023-08-30T21:09:04.616Z,11.67
2023-08-30T21:11:33.565Z,11.57
2023-08-30T21:14:02.441Z,11.60
2023-08-30T21:16:31.511Z,11.47
2023-08-30T21:19:00.058Z,11.47
2023-08-30T21:21:28.894Z,11.57
2023-08-30T21:24:00.958Z,11.53
2023-08-30T21:26:29.752Z,11.47
2023-08-30T21:28:58.514Z,11.47
2023-08-30T21:31:27.892Z,11.50
2023-08-30T21:33:56.715Z,10.93
2023-08-30T21:36:25.477Z,11.37
2023-08-30T21:38:57.080Z,11.45
2023-08-30T21:41:25.633Z,11.25
2023-08-30T21:43:54.434Z,11.37
2023-08-30T21:46:23.248Z,11.30
2023-08-30T21:48:51.893Z,11.31
2023-08-30T21:51:20.554Z,11.25
2023-08-30T21:53:49.256Z,11.23
2023-08-30T21:56:17.877Z,11.14
2023-08-30T21:58:46.596Z,11.10
2023-08-30T22:01:15.401Z,11.13
2023-08-30T22:03:44.186Z,11.12
2023-08-30T22:06:12.798Z,11.05
2023-08-30T22:08:41.475Z,11.01
2023-08-30T22:11:13.736Z,10.93
2023-08-30T22:13:42.315Z,10.82
2023-08-30T22:16:11.242Z,10.91
2023-08-30T22:18:39.996Z,10.53
2023-08-30T22:21:08.758Z,10.87
2023-08-30T22:23:37.335Z,10.92
2023-08-30T22:26:05.921Z,10.84
2023-08-30T22:28:34.899Z,10.81
2023-08-30T22:31:03.977Z,10.82
2023-08-30T22:33:38.073Z,10.84
2023-08-30T22:36:06.921Z,10.83
2023-08-30T22:38:35.535Z,10.67
2023-08-30T22:41:04.796Z,10.70
2023-08-30T22:43:34.755Z,10.32
2023-08-30T22:46:05.489Z,10.43
2023-08-30T22:48:34.135Z,10.61
2023-08-30T22:51:07.636Z,10.24
2023-08-30T22:53:39.356Z,10.60
2023-08-30T22:56:10.676Z,10.60
2023-08-30T22:58:39.461Z,10.46
2023-08-30T23:01:09.356Z,10.53
2023-08-30T23:03:38.190Z,10.56
2023-08-30T23:06:06.952Z,10.48
2023-08-30T23:08:36.800Z,10.31
2023-08-30T23:11:07.578Z,10.32
2023-08-30T23:13:36.154Z,10.37
2023-08-30T23:16:07.678Z,10.26
2023-08-30T23:18:36.325Z,10.26
2023-08-30T23:21:05.013Z,9.88
2023-08-30T23:23:33.677Z,10.18
2023-08-30T23:26:06.240Z,10.09
2023-08-30T23:28:34.948Z,10.11
2023-08-30T23:31:07.709Z,10.06
2023-08-30T23:33:36.462Z,10.04
2023-08-30T23:36:05.630Z,10.02
2023-08-30T23:38:35.267Z,9.90
2023-08-30T23:41:04.154Z,9.90
2023-08-30T23:43:33.037Z,9.88
2023-08-30T23:46:05.036Z,9.94
2023-08-30T23:48:33.961Z,9.79
2023-08-30T23:51:03.933Z,9.83
2023-08-30T23:53:33.140Z,9.53
2023-08-30T23:56:01.813Z,9.74
2023-08-30T23:58:30.675Z,9.79
